createdAt,value
2023-04-27T04:51:51.023Z,8.20
2023-04-27T04:55:20.827Z,10.95
2023-04-27T04:58:07.322Z,14.88
2023-04-27T05:01:10.819Z,11.10
2023-04-27T05:04:15.600Z,12.20
2023-04-27T05:07:08.410Z,13.95
2023-04-27T05:09:48.518Z,12.55
2023-04-27T05:12:22.326Z,12.23
2023-04-27T05:15:31.955Z,14.93
2023-04-27T05:18:18.088Z,11.90
2023-04-27T05:21:09.355Z,10.25
2023-04-27T05:24:14.250Z,14.57
2023-04-27T05:26:49.559Z,9.82
2023-04-27T05:29:42.239Z,14.40
2023-04-27T05:32:16.090Z,10.02
2023-04-27T05:35:08.524Z,9.13
2023-04-27T05:37:42.337Z,10.77
2023-04-27T05:40:52.804Z,10.65
2023-04-27T05:44:04.576Z,13.00
2023-04-27T05:46:57.066Z,11.88
2023-04-27T05:50:07.097Z,13.75
2023-04-27T05:53:06.153Z,13.93
2023-04-27T05:56:04.732Z,14.90
2023-04-27T05:58:44.286Z,12.38
2023-04-27T06:01:31.490Z,15.63
2023-04-27T06:04:41.084Z,13.38
2023-04-27T06:07:27.370Z,17.23
2023-04-27T06:10:37.853Z,9.45
2023-04-27T06:13:24.174Z,11.60
2023-04-27T06:16:46.782Z,12.43
2023-04-27T06:19:52.047Z,9.80
2023-04-27T06:22:57.833Z,9.40
2023-04-27T06:25:44.036Z,9.93
2023-04-27T06:28:23.793Z,11.73
2023-04-27T06:31:22.738Z,10.07
2023-04-27T06:34:08.911Z,12.85
2023-04-27T06:37:08.530Z,10.13
2023-04-27T06:39:53.645Z,12.73
2023-04-27T06:42:39.174Z,13.27
2023-04-27T06:45:13.142Z,13.48
2023-04-27T06:48:10.814Z,17.58
2023-04-27T06:51:02.190Z,9.75
2023-04-27T06:54:01.803Z,10.02
2023-04-27T06:57:04.803Z,11.27
2023-04-27T07:00:08.863Z,13.50
2023-04-27T07:02:42.567Z,11.15
2023-04-27T07:05:40.728Z,11.38
2023-04-27T07:08:38.474Z,13.82
2023-04-27T07:11:07.733Z,12.30
2023-04-27T07:13:41.357Z,14.02
2023-04-27T07:16:40.128Z,14.07
2023-04-27T07:19:31.795Z,22.35
2023-04-27T07:22:24.331Z,13.57
2023-04-27T07:24:57.975Z,12.98
2023-04-27T07:27:39.791Z,16.02
2023-04-27T07:30:10.022Z,15.57
2023-04-27T07:32:56.655Z,11.77
2023-04-27T07:35:43.307Z,16.88
2023-04-27T07:38:23.357Z,14.20
2023-04-27T07:41:30.681Z,9.95
2023-04-27T07:44:12.253Z,19.23
2023-04-27T07:47:10.094Z,13.50
2023-04-27T07:49:49.808Z,13.48
2023-04-27T07:53:12.708Z,16.92
2023-04-27T07:55:58.711Z,16.60
2023-04-27T07:58:56.329Z,13.57
2023-04-27T08:01:37.804Z,15.93
2023-04-27T08:04:29.848Z,16.00
2023-04-27T08:07:46.963Z,14.25
2023-04-27T08:10:51.297Z,13.27
2023-04-27T08:13:31.026Z,13.75
2023-04-27T08:16:53.054Z,16.33
2023-04-27T08:20:16.217Z,19.75
2023-04-27T08:23:21.553Z,15.77
2023-04-27T08:26:26.407Z,14.20
2023-04-27T08:29:27.115Z,18.40
2023-04-27T08:33:03.962Z,14.02
2023-04-27T08:35:50.570Z,15.43
2023-04-27T08:38:44.610Z,17.88
2023-04-27T08:41:27.331Z,17.05
2023-04-27T08:44:07.059Z,15.27
2023-04-27T08:47:11.705Z,22.52
2023-04-27T08:49:45.330Z,19.95
2023-04-27T08:52:25.091Z,18.80
2023-04-27T08:55:13.311Z,16.42
2023-04-27T08:57:48.800Z,16.85
2023-04-27T09:01:03.761Z,17.85
2023-04-27T09:04:07.224Z,15.15
2023-04-27T09:07:43.380Z,15.43
2023-04-27T09:10:36.998Z,12.98
2023-04-27T09:13:48.607Z,20.63
2023-04-27T09:16:34.963Z,18.25
2023-04-27T09:19:37.732Z,14.75
2023-04-27T09:22:33.525Z,12.73
2023-04-27T09:25:19.773Z,15.32
2023-04-27T09:28:07.171Z,13.90
2023-04-27T09:31:17.422Z,16.48
2023-04-27T09:34:28.180Z,15.55
2023-04-27T09:37:14.300Z,12.70
2023-04-27T09:39:55.115Z,13.98
2023-04-27T09:42:29.229Z,15.02
2023-04-27T09:44:59.438Z,16.50
2023-04-27T09:47:51.170Z,12.98
2023-04-27T09:50:19.235Z,18.25
2023-04-27T09:53:33.281Z,16.77
2023-04-27T09:56:33.339Z,18.60
2023-04-27T09:59:42.691Z,13.77
2023-04-27T10:02:53.183Z,14.98
2023-04-27T10:05:49.852Z,13.43
2023-04-27T10:08:36.432Z,19.15
2023-04-27T10:11:52.820Z,12.02
2023-04-27T10:14:49.871Z,10.60
2023-04-27T10:17:43.525Z,20.48
2023-04-27T10:20:30.792Z,14.18
2023-04-27T10:23:30.084Z,10.85
2023-04-27T10:26:21.180Z,13.15
2023-04-27T10:29:31.817Z,12.95
2023-04-27T10:32:23.273Z,22.60
2023-04-27T10:35:07.440Z,11.88
2023-04-27T10:37:53.219Z,15.13
2023-04-27T10:40:58.022Z,17.50
2023-04-27T10:43:37.834Z,22.07
2023-04-27T10:46:24.432Z,21.17
2023-04-27T10:49:23.503Z,19.67
2023-04-27T10:52:17.191Z,19.15
2023-04-27T10:55:20.740Z,13.38
2023-04-27T10:58:02.322Z,16.60
2023-04-27T11:00:48.276Z,15.57
2023-04-27T11:03:49.008Z,15.35
2023-04-27T11:06:41.993Z,14.10
2023-04-27T11:09:49.723Z,14.48
2023-04-27T11:12:47.546Z,15.82
2023-04-27T11:15:48.859Z,17.55
2023-04-27T11:18:33.603Z,13.02
2023-04-27T11:21:38.467Z,15.25
2023-04-27T11:25:08.039Z,14.63
2023-04-27T11:28:17.725Z,13.43
2023-04-27T11:31:09.772Z,16.95
2023-04-27T11:33:56.068Z,17.02
2023-04-27T11:36:36.076Z,16.23
2023-04-27T11:39:28.525Z,18.92
2023-04-27T11:42:43.423Z,18.67
2023-04-27T11:45:30.134Z,13.45
2023-04-27T11:48:24.362Z,19.48
2023-04-27T11:51:29.922Z,13.73
2023-04-27T11:54:08.316Z,18.15
2023-04-27T11:56:49.384Z,14.95
2023-04-27T11:59:30.765Z,17.15
2023-04-27T12:02:35.699Z,14.35
2023-04-27T12:05:12.463Z,17.83
2023-04-27T12:08:16.660Z,16.52
2023-04-27T12:11:15.070Z,21.23
2023-04-27T12:14:32.672Z,14.13
2023-04-27T12:17:12.737Z,17.52
2023-04-27T12:19:52.665Z,18.38
2023-04-27T12:22:45.495Z,17.08
2023-04-27T12:25:25.403Z,20.60
2023-04-27T12:28:23.448Z,15.18
2023-04-27T12:31:18.785Z,14.90
2023-04-27T12:33:46.893Z,16.83
2023-04-27T12:36:27.123Z,15.18
2023-04-27T12:39:15.735Z,14.55
2023-04-27T12:42:02.338Z,14.43
2023-04-27T12:44:42.305Z,16.73
2023-04-27T12:47:46.357Z,14.93
2023-04-27T12:50:30.117Z,15.60
2023-04-27T12:53:15.433Z,16.27
2023-04-27T12:56:04.246Z,18.58
2023-04-27T12:58:37.918Z,15.20
2023-04-27T13:01:25.433Z,14.88
2023-04-27T13:04:25.139Z,17.15
2023-04-27T13:07:16.757Z,16.30
2023-04-27T13:10:21.051Z,17.20
2023-04-27T13:12:55.613Z,18.83
2023-04-27T13:15:42.084Z,17.17
2023-04-27T13:18:52.437Z,16.20
2023-04-27T13:21:39.673Z,24.40
2023-04-27T13:24:19.330Z,17.88
2023-04-27T13:26:52.794Z,19.58
2023-04-27T13:29:51.264Z,20.63
2023-04-27T13:32:25.070Z,19.77
2023-04-27T13:35:23.871Z,17.73
2023-04-27T13:38:11.448Z,18.52
2023-04-27T13:40:51.521Z,23.27
2023-04-27T13:43:19.353Z,21.90
2023-04-27T13:45:55.040Z,18.02
2023-04-27T13:48:40.775Z,19.90
2023-04-27T13:51:50.642Z,19.30
2023-04-27T13:54:51.116Z,20.17
2023-04-27T13:57:37.528Z,17.42
2023-04-27T14:00:42.571Z,18.10
2023-04-27T14:06:08.587Z,16.55
2023-04-27T14:08:55.676Z,19.63
2023-04-27T14:11:56.469Z,18.92
2023-04-27T14:14:31.060Z,14.77
2023-04-27T14:17:29.399Z,19.75
2023-04-27T14:20:15.828Z,18.35
2023-04-27T14:23:07.527Z,20.33
2023-04-27T14:25:59.110Z,20.50
2023-04-27T14:28:58.743Z,16.27
2023-04-27T14:31:45.511Z,19.95
2023-04-27T14:34:31.807Z,15.93
2023-04-27T14:37:29.336Z,18.40
2023-04-27T14:40:15.130Z,17.63
2023-04-27T14:42:48.802Z,19.15
2023-04-27T14:46:19.813Z,21.92
2023-04-27T14:49:18.561Z,20.23
2023-04-27T14:52:34.716Z,21.33
2023-04-27T14:55:20.432Z,17.48
2023-04-27T14:57:54.375Z,19.15
2023-04-27T15:00:52.717Z,20.40
2023-04-27T15:04:05.061Z,21.23
2023-04-27T15:06:51.807Z,21.13
2023-04-27T15:09:44.037Z,18.00
2023-04-27T15:12:59.508Z,16.63
2023-04-27T15:15:27.329Z,19.83
2023-04-27T15:18:19.277Z,17.65
2023-04-27T15:21:13.582Z,19.15
2023-04-27T15:23:47.251Z,20.55
2023-04-27T15:26:33.434Z,22.17
2023-04-27T15:29:30.768Z,19.08
2023-04-27T15:32:30.233Z,22.20
2023-04-27T15:35:23.084Z,16.10
2023-04-27T15:38:15.435Z,19.90
2023-04-27T15:40:49.303Z,17.25
2023-04-27T15:43:23.426Z,17.77
2023-04-27T15:46:10.200Z,19.30
2023-04-27T15:48:43.827Z,20.77
2023-04-27T15:51:23.762Z,21.23
2023-04-27T15:53:58.578Z,23.38
2023-04-27T15:56:49.857Z,19.60
2023-04-27T15:59:48.316Z,20.70
2023-04-27T16:02:21.909Z,19.02
2023-04-27T16:04:50.491Z,19.63
2023-04-27T16:07:24.526Z,19.08
2023-04-27T16:09:53.972Z,20.98
2023-04-27T16:12:46.480Z,20.95
2023-04-27T16:15:38.287Z,25.00
2023-04-27T16:18:30.246Z,21.98
2023-04-27T16:21:22.294Z,21.60
2023-04-27T16:24:20.417Z,24.13
2023-04-27T16:27:20.765Z,15.63
2023-04-27T16:30:00.384Z,24.17
2023-04-27T16:32:46.607Z,21.25
2023-04-27T16:35:20.037Z,22.58
2023-04-27T16:38:06.016Z,21.33
2023-04-27T16:40:33.942Z,21.85
2023-04-27T16:43:28.008Z,19.70
2023-04-27T16:46:14.768Z,23.77
2023-04-27T16:48:54.691Z,19.13
2023-04-27T16:51:34.850Z,21.63
2023-04-27T16:54:16.430Z,20.70
2023-04-27T16:57:21.197Z,16.70
2023-04-27T17:00:01.954Z,21.13
2023-04-27T17:02:29.915Z,22.40
2023-04-27T17:05:10.257Z,23.85
2023-04-27T17:08:08.461Z,20.50
2023-04-27T17:10:54.457Z,20.27
2023-04-27T17:13:58.598Z,22.92
2023-04-27T17:17:16.479Z,21.42
2023-04-27T17:20:02.504Z,18.58
2023-04-27T17:22:48.034Z,22.48
2023-04-27T17:25:21.999Z,23.40
2023-04-27T17:28:21.680Z,19.02
2023-04-27T17:30:49.545Z,24.83
2023-04-27T17:33:49.199Z,20.65
2023-04-27T17:36:17.018Z,18.20
2023-04-27T17:38:56.746Z,23.33
2023-04-27T17:42:13.159Z,21.63
2023-04-27T17:44:53.080Z,23.02
2023-04-27T17:47:33.724Z,25.77
2023-04-27T17:50:41.000Z,27.52
2023-04-27T17:53:33.426Z,34.60
2023-04-27T17:56:19.230Z,37.00
2023-04-27T17:59:04.801Z,30.05
2023-04-27T18:01:57.301Z,22.33
2023-04-27T18:04:36.861Z,29.35
2023-04-27T18:07:06.283Z,23.10
2023-04-27T18:12:49.710Z,18.30
2023-04-27T18:15:41.436Z,20.25
2023-04-27T18:18:39.349Z,24.30
2023-04-27T18:21:26.735Z,19.27
2023-04-27T18:23:55.966Z,20.92
2023-04-27T18:26:35.526Z,18.58
2023-04-27T18:29:21.851Z,19.65
2023-04-27T18:32:08.188Z,16.90
2023-04-27T18:34:48.459Z,16.05
2023-04-27T18:37:41.221Z,17.42
2023-04-27T18:40:28.862Z,20.92
2023-04-27T18:43:08.632Z,16.52
2023-04-27T18:45:42.477Z,15.10
2023-04-27T18:48:33.965Z,15.95
2023-04-27T18:51:26.314Z,18.15
2023-04-27T18:53:59.824Z,18.70
2023-04-27T18:57:11.595Z,21.75
2023-04-27T19:00:05.405Z,21.60
2023-04-27T19:02:58.138Z,20.30
2023-04-27T19:05:26.121Z,19.23
2023-04-27T19:08:24.173Z,21.08
2023-04-27T19:11:03.685Z,17.77
2023-04-27T19:13:51.412Z,18.38
2023-04-27T19:16:31.119Z,19.00
2023-04-27T19:19:23.379Z,19.10
2023-04-27T19:22:26.565Z,15.87
2023-04-27T19:25:13.662Z,21.55
2023-04-27T19:28:07.002Z,16.73
2023-04-27T19:31:00.928Z,18.00
2023-04-27T19:34:18.345Z,14.60
2023-04-27T19:37:10.717Z,20.58
2023-04-27T19:40:08.654Z,18.75
2023-04-27T19:43:07.125Z,19.88
2023-04-27T19:46:26.662Z,18.83
2023-04-27T19:49:00.982Z,15.75
2023-04-27T19:52:42.088Z,22.35
2023-04-27T19:56:23.924Z,16.13
2023-04-27T20:00:05.421Z,19.20
2023-04-27T20:03:53.132Z,18.45
2023-04-27T20:07:35.302Z,15.50
2023-04-27T20:11:16.731Z,15.80
2023-04-27T20:15:10.020Z,20.52
2023-04-27T20:18:57.389Z,17.75
2023-04-27T20:22:38.723Z,17.15
2023-04-27T20:26:26.168Z,16.13
2023-04-27T20:30:07.762Z,14.63
2023-04-27T20:33:49.015Z,17.55
2023-04-27T20:37:36.201Z,14.43
2023-04-27T20:41:24.173Z,26.33
2023-04-27T20:45:05.828Z,16.33
2023-04-27T20:48:53.221Z,14.65
2023-04-27T20:57:04.657Z,14.30
2023-04-27T21:00:46.249Z,11.65
2023-04-27T21:04:33.637Z,11.85
2023-04-27T21:08:33.413Z,13.80
2023-04-27T21:16:32.515Z,17.92
2023-04-27T21:20:13.947Z,15.38
2023-04-27T21:24:13.933Z,19.00
2023-04-27T21:27:55.430Z,15.75
2023-04-27T21:31:49.056Z,15.13
2023-04-27T21:35:30.588Z,11.32
2023-04-27T21:39:11.921Z,13.45
2023-04-27T21:42:59.549Z,12.45
2023-04-27T21:46:47.012Z,16.05
2023-04-27T21:50:11.861Z,22.70
2023-04-27T21:52:51.407Z,12.00
2023-04-27T21:55:37.331Z,14.60
2023-04-27T21:58:17.113Z,16.42
2023-04-27T22:01:20.752Z,13.30
2023-04-27T22:04:00.965Z,15.85
2023-04-27T22:06:30.938Z,14.25
2023-04-27T22:09:35.309Z,15.73
2023-04-27T22:12:39.311Z,14.43
2023-04-27T22:15:32.173Z,14.68
2023-04-27T22:18:41.918Z,14.73
2023-04-27T22:21:40.277Z,15.02
2023-04-27T22:24:51.534Z,14.45
2023-04-27T22:27:54.671Z,16.73
2023-04-27T22:30:34.368Z,14.20
2023-04-27T22:33:03.001Z,10.80
2023-04-27T22:35:48.459Z,14.30
2023-04-27T22:38:16.685Z,13.02
2023-04-27T22:41:09.948Z,14.98
2023-04-27T22:44:01.301Z,13.43
2023-04-27T22:46:47.536Z,15.55
2023-04-27T22:49:39.588Z,14.43
2023-04-27T22:52:19.481Z,14.45
2023-04-27T22:54:47.334Z,9.98
2023-04-27T22:57:53.977Z,16.17
2023-04-27T23:00:46.278Z,13.02
2023-04-27T23:03:50.583Z,15.38
2023-04-27T23:06:48.672Z,21.02
2023-04-27T23:09:39.885Z,15.57
2023-04-27T23:12:38.804Z,15.50
2023-04-27T23:15:32.695Z,14.93
2023-04-27T23:18:30.856Z,16.63
2023-04-27T23:21:22.412Z,15.50
2023-04-27T23:24:26.135Z,16.95
2023-04-27T23:27:00.140Z,13.88
2023-04-27T23:29:40.184Z,12.00
2023-04-27T23:32:28.311Z,13.88
2023-04-27T23:35:07.724Z,15.13
2023-04-27T23:37:59.303Z,13.90
2023-04-27T23:40:45.580Z,17.88
2023-04-27T23:43:37.999Z,18.38
2023-04-27T23:46:42.278Z,16.75
2023-04-27T23:49:29.286Z,15.38
2023-04-27T23:52:27.189Z,13.60
2023-04-27T23:55:25.824Z,14.50
2023-04-27T23:58:35.436Z,18.88
